Time;durP1;ratioP1;P1;durP2;ratioP2;P2;SDS_P1;SDS_P2;PMS_P1;PMS_P2;Temp;Humidity;BMP_temperature;BMP_pressure;BME280_temperature;BME280_humidity;BME280_pressure;Samples;Min_cycle;Max_cycle;Signal;HPM_P1;HPM_P2
2023/06/09 00:02:18;;;;;;;5.10;4.60;;;19.00;99.90;;;;;;5054219;28;20189;-69
2023/06/09 00:04:44;;;;;;;5.95;4.82;;;19.00;99.90;;;;;;5055593;28;20225;-68
2023/06/09 00:07:12;;;;;;;5.13;4.63;;;18.90;99.90;;;;;;5044444;28;20181;-68
2023/06/09 00:09:37;;;;;;;5.82;4.72;;;18.90;99.90;;;;;;5055552;28;20177;-69
2023/06/09 00:12:03;;;;;;;5.00;4.50;;;18.90;99.90;;;;;;5045961;28;20232;-69
2023/06/09 00:14:31;;;;;;;5.25;4.43;;;18.80;99.90;;;;;;5062917;28;20181;-68
2023/06/09 00:16:59;;;;;;;4.72;4.32;;;18.80;99.90;;;;;;5055369;28;20174;-69
2023/06/09 00:19:28;;;;;;;5.50;4.55;;;18.70;99.90;;;;;;5036670;28;20189;-69
2023/06/09 00:21:54;;;;;;;4.90;4.28;;;18.70;99.90;;;;;;5055190;28;20181;-69
2023/06/09 00:24:23;;;;;;;4.88;4.30;;;18.70;99.90;;;;;;5038497;28;20220;-67
2023/06/09 00:26:52;;;;;;;6.28;4.63;;;18.70;99.90;;;;;;5054929;28;20173;-68
2023/06/09 00:29:20;;;;;;;5.18;4.40;;;18.60;99.90;;;;;;5038585;28;20180;-68
2023/06/09 00:31:46;;;;;;;6.53;4.85;;;18.60;99.90;;;;;;5038445;28;20184;-68
2023/06/09 00:34:15;;;;;;;5.43;4.65;;;18.60;99.90;;;;;;5038093;28;20177;-67
2023/06/09 00:36:43;;;;;;;4.82;4.43;;;18.60;99.90;;;;;;5038301;28;20609;-67
2023/06/09 00:39:11;;;;;;;5.22;4.55;;;18.50;99.90;;;;;;5045515;28;20182;-68
2023/06/09 00:41:38;;;;;;;5.10;4.63;;;18.50;99.90;;;;;;5038189;28;20196;-67
2023/06/09 00:44:04;;;;;;;5.13;4.20;;;18.50;99.90;;;;;;5020469;28;20209;-67
2023/06/09 00:46:35;;;;;;;7.00;4.65;;;18.40;99.90;;;;;;5018663;28;20262;-67
2023/06/09 00:49:01;;;;;;;5.20;4.70;;;18.40;99.90;;;;;;5024833;28;20200;-68
2023/06/09 00:51:28;;;;;;;4.82;4.43;;;18.40;99.90;;;;;;5054611;28;20193;-68
2023/06/09 00:53:54;;;;;;;4.78;4.32;;;18.40;99.90;;;;;;5038011;28;20197;-68
2023/06/09 00:56:23;;;;;;;4.68;4.20;;;18.40;99.90;;;;;;5042543;28;20197;-69
2023/06/09 00:58:52;;;;;;;5.25;4.47;;;18.40;99.90;;;;;;5052635;28;20185;-68
2023/06/09 01:01:20;;;;;;;6.05;4.60;;;18.40;99.90;;;;;;5037335;28;20227;-68
2023/06/09 01:03:48;;;;;;;4.82;4.35;;;18.30;99.90;;;;;;5054476;28;20228;-68
2023/06/09 01:06:50;;;;;;;4.75;4.32;;;18.30;99.90;;;;;;5050491;28;20178;-68
2023/06/09 01:09:33;;;;;;;3.97;3.67;;;18.30;99.90;;;;;;5031031;28;20228;-68
2023/06/09 01:12:22;;;;;;;4.97;4.47;;;18.30;99.90;;;;;;5018394;28;20162;-67
2023/06/09 01:14:55;;;;;;;6.40;4.28;;;18.30;99.90;;;;;;5034666;28;20269;-68
2023/06/09 01:17:23;;;;;;;4.85;4.07;;;18.30;99.90;;;;;;5042417;28;20177;-68
2023/06/09 01:19:54;;;;;;;5.20;4.70;;;18.20;99.90;;;;;;5037756;28;20178;-68
2023/06/09 01:22:48;;;;;;;5.05;4.45;;;18.20;99.90;;;;;;5037716;28;20201;-68
2023/06/09 01:25:25;;;;;;;8.57;5.18;;;18.10;99.90;;;;;;5018042;28;20177;-68
2023/06/09 01:27:52;;;;;;;5.20;4.70;;;18.10;99.90;;;;;;5042082;28;20192;-67
2023/06/09 01:30:20;;;;;;;5.30;4.80;;;18.00;99.90;;;;;;5049493;28;20264;-68
2023/06/09 01:32:48;;;;;;;5.72;4.82;;;18.00;99.90;;;;;;5053021;28;20271;-68
2023/06/09 01:35:14;;;;;;;5.10;4.60;;;17.90;99.90;;;;;;5037492;28;20201;-68
2023/06/09 01:37:45;;;;;;;5.85;4.78;;;17.90;99.90;;;;;;5053965;28;20177;-67
2023/06/09 01:40:14;;;;;;;5.80;4.57;;;17.80;99.90;;;;;;5037564;28;20188;-67
2023/06/09 01:42:39;;;;;;;5.65;4.82;;;17.80;99.90;;;;;;5037226;28;20238;-67
2023/06/09 01:45:10;;;;;;;5.13;4.63;;;17.80;99.90;;;;;;5055614;28;20165;-67
2023/06/09 01:47:38;;;;;;;5.57;4.80;;;17.80;99.90;;;;;;5058016;28;20229;-68
2023/06/09 01:50:16;;;;;;;4.65;4.25;;;17.70;99.90;;;;;;5057490;28;20268;-68
2023/06/09 01:52:52;;;;;;;5.38;4.55;;;17.70;99.90;;;;;;5058335;28;20226;-68
2023/06/09 01:55:32;;;;;;;4.93;4.43;;;17.70;99.90;;;;;;5058131;28;20188;-68
2023/06/09 01:58:14;;;;;;;4.65;4.10;;;17.70;99.90;;;;;;5058154;28;20227;-68
2023/06/09 02:00:42;;;;;;;5.03;4.53;;;17.70;99.90;;;;;;5041085;28;20201;-67
2023/06/09 02:03:12;;;;;;;4.95;4.45;;;17.60;99.90;;;;;;5057865;28;20196;-67
2023/06/09 02:05:41;;;;;;;4.80;4.40;;;17.60;99.90;;;;;;5040109;28;20170;-67
2023/06/09 02:08:08;;;;;;;5.75;4.80;;;17.60;99.90;;;;;;5038876;28;20197;-67
2023/06/09 02:10:36;;;;;;;5.22;4.60;;;17.70;99.90;;;;;;5041157;28;20264;-67
2023/06/09 02:13:21;;;;;;;4.85;4.43;;;17.60;99.90;;;;;;5041207;28;20193;-67
2023/06/09 02:15:47;;;;;;;5.65;5.10;;;17.60;99.90;;;;;;5041337;28;20172;-67
2023/06/09 02:18:15;;;;;;;6.00;4.93;;;17.60;99.90;;;;;;5057727;28;20204;-68
2023/06/09 02:20:42;;;;;;;5.38;4.57;;;17.50;99.90;;;;;;5041043;28;20268;-67
2023/06/09 02:23:09;;;;;;;5.70;4.82;;;17.50;99.90;;;;;;5052616;28;20197;-68
2023/06/09 02:25:35;;;;;;;5.40;4.90;;;17.40;99.90;;;;;;5020955;28;20284;-67
2023/06/09 02:28:08;;;;;;;5.85;4.78;;;17.40;99.90;;;;;;5020962;28;20209;-67
2023/06/09 02:30:34;;;;;;;6.45;4.80;;;17.40;99.90;;;;;;5038798;28;20207;-67
2023/06/09 02:33:02;;;;;;;4.55;4.15;;;17.40;99.90;;;;;;5057299;28;20236;-68
2023/06/09 02:35:29;;;;;;;5.25;4.75;;;17.30;99.90;;;;;;5053896;28;20185;-67
2023/06/09 02:37:58;;;;;;;5.15;4.65;;;17.30;99.90;;;;;;5046315;28;20188;-67
2023/06/09 02:40:27;;;;;;;6.22;4.97;;;17.30;99.90;;;;;;5038019;28;20215;-67
2023/06/09 02:42:55;;;;;;;5.38;4.90;;;17.30;99.90;;;;;;5037070;28;20269;-67
2023/06/09 02:45:21;;;;;;;5.25;4.75;;;17.30;99.90;;;;;;5039099;28;20342;-68
2023/06/09 02:47:49;;;;;;;5.45;4.95;;;17.30;99.90;;;;;;5040710;28;20176;-68
2023/06/09 02:50:15;;;;;;;5.25;4.75;;;17.30;99.90;;;;;;5038391;28;20186;-68
2023/06/09 02:52:40;;;;;;;5.25;4.75;;;17.20;99.90;;;;;;5060358;28;20177;-68
2023/06/09 02:55:11;;;;;;;5.70;4.57;;;17.20;99.90;;;;;;5056947;28;20217;-68
2023/06/09 02:57:37;;;;;;;5.07;4.60;;;17.20;99.90;;;;;;5047982;28;20221;-68
2023/06/09 03:00:04;;;;;;;5.22;4.68;;;17.20;99.90;;;;;;5055298;28;20270;-68
2023/06/09 03:02:30;;;;;;;5.07;4.57;;;17.20;99.90;;;;;;5056761;28;20193;-68
2023/06/09 03:04:56;;;;;;;4.70;4.30;;;17.10;99.90;;;;;;5056813;28;20170;-68
2023/06/09 03:07:22;;;;;;;5.18;4.68;;;17.10;99.90;;;;;;5051883;28;20186;-68
2023/06/09 03:09:48;;;;;;;5.22;4.72;;;17.10;99.90;;;;;;5056314;28;20257;-68
2023/06/09 03:12:14;;;;;;;4.95;4.45;;;17.10;99.90;;;;;;5021061;28;20265;-68
2023/06/09 03:14:40;;;;;;;5.95;4.68;;;17.10;99.90;;;;;;5020179;28;20205;-68
2023/06/09 03:17:05;;;;;;;5.70;5.10;;;17.10;99.90;;;;;;5036582;28;20201;-68
2023/06/09 03:19:31;;;;;;;4.97;4.47;;;17.00;99.90;;;;;;5056087;28;20208;-68
2023/06/09 03:21:57;;;;;;;5.07;4.60;;;17.00;99.90;;;;;;5040006;28;20165;-68
2023/06/09 03:24:24;;;;;;;5.35;4.85;;;17.00;99.90;;;;;;5049608;28;20210;-68
2023/06/09 03:26:52;;;;;;;8.20;6.80;;;17.00;99.90;;;;;;5025898;28;20228;-67
2023/06/09 03:29:18;;;;;;;5.22;4.72;;;17.00;99.90;;;;;;5056286;28;20198;-68
2023/06/09 03:31:46;;;;;;;6.07;5.32;;;16.90;99.90;;;;;;5050397;28;20181;-68
2023/06/09 03:34:14;;;;;;;5.88;5.25;;;16.90;99.90;;;;;;5053022;28;20180;-68
2023/06/09 03:36:40;;;;;;;6.50;5.88;;;16.90;99.90;;;;;;5056368;28;20205;-67
2023/06/09 03:39:06;;;;;;;8.25;7.45;;;16.90;99.90;;;;;;5043270;28;20188;-68
2023/06/09 03:41:32;;;;;;;8.60;6.72;;;16.90;99.90;;;;;;5039360;28;20272;-68
2023/06/09 03:44:00;;;;;;;6.88;6.18;;;16.90;99.90;;;;;;5056864;28;20277;-68
2023/06/09 03:46:25;;;;;;;6.10;5.50;;;16.90;99.90;;;;;;5048442;28;20239;-68
2023/06/09 03:48:52;;;;;;;6.28;5.32;;;16.90;99.90;;;;;;5046010;28;20201;-68
2023/06/09 03:51:23;;;;;;;6.25;5.38;;;16.90;99.90;;;;;;5055616;28;20169;-68
2023/06/09 03:53:48;;;;;;;5.38;4.88;;;16.80;99.90;;;;;;5056005;28;20212;-68
2023/06/09 03:56:17;;;;;;;5.90;5.30;;;16.80;99.90;;;;;;5055863;28;20224;-68
2023/06/09 03:58:42;;;;;;;6.05;5.38;;;16.80;99.90;;;;;;5044494;28;20191;-68
2023/06/09 04:01:10;;;;;;;7.63;6.35;;;16.70;99.90;;;;;;5055465;28;20205;-68
2023/06/09 04:03:37;;;;;;;12.25;10.30;;;16.80;99.90;;;;;;5050346;28;20186;-68
2023/06/09 04:06:03;;;;;;;10.77;6.75;;;16.80;99.90;;;;;;5046895;28;20191;-68
2023/06/09 04:08:32;;;;;;;6.90;6.20;;;16.80;99.90;;;;;;5034530;28;20198;-68
2023/06/09 04:10:58;;;;;;;6.22;5.63;;;16.80;99.90;;;;;;5040555;28;20201;-68
2023/06/09 04:13:25;;;;;;;6.57;5.30;;;16.80;99.90;;;;;;5034291;28;20248;-68
2023/06/09 04:15:51;;;;;;;7.32;5.38;;;16.80;99.90;;;;;;5028935;28;20215;-68
2023/06/09 04:18:17;;;;;;;7.53;4.95;;;16.90;99.90;;;;;;5037910;28;20209;-68
2023/06/09 04:20:45;;;;;;;6.30;5.20;;;16.90;99.90;;;;;;5038715;28;20204;-68
2023/06/09 04:23:11;;;;;;;6.32;4.93;;;16.90;99.90;;;;;;5038543;28;20197;-68
2023/06/09 04:25:36;;;;;;;8.15;6.68;;;17.00;99.90;;;;;;5034800;28;20430;-68
2023/06/09 04:28:04;;;;;;;15.88;12.32;;;16.90;99.90;;;;;;5025548;28;20201;-68
2023/06/09 04:30:30;;;;;;;9.52;8.55;;;17.00;99.90;;;;;;5046588;28;20197;-68
2023/06/09 04:33:04;;;;;;;9.52;6.75;;;17.00;99.90;;;;;;5040921;28;20259;-68
2023/06/09 04:35:31;;;;;;;7.35;6.65;;;17.00;99.90;;;;;;5037711;28;20177;-69
2023/06/09 04:38:00;;;;;;;7.13;6.13;;;17.00;99.90;;;;;;5029895;28;20186;-69
2023/06/09 04:40:29;;;;;;;6.78;5.85;;;17.10;99.90;;;;;;5028295;28;20263;-68
2023/06/09 04:43:01;;;;;;;6.95;6.03;;;17.10;99.90;;;;;;5046910;28;20198;-68
2023/06/09 04:45:33;;;;;;;5.65;5.15;;;17.20;99.90;;;;;;5018501;28;20189;-68
2023/06/09 04:47:59;;;;;;;14.30;11.48;;;17.20;99.90;;;;;;5034496;28;20219;-68
2023/06/09 04:50:30;;;;;;;8.40;7.35;;;17.30;99.90;;;;;;5037259;28;20181;-68
2023/06/09 04:52:59;;;;;;;6.55;5.78;;;17.30;99.90;;;;;;5056045;28;20475;-67
2023/06/09 04:55:29;;;;;;;6.75;6.15;;;17.30;99.90;;;;;;5027544;28;20281;-66
2023/06/09 04:57:56;;;;;;;5.90;5.32;;;17.40;99.90;;;;;;5045722;28;20174;-67
2023/06/09 05:00:27;;;;;;;5.78;5.18;;;17.40;99.90;;;;;;5052789;28;20225;-65
2023/06/09 05:02:54;;;;;;;7.03;5.10;;;17.50;99.90;;;;;;5051590;28;20197;-66
2023/06/09 05:05:20;;;;;;;5.88;4.90;;;17.50;99.90;;;;;;5023453;28;20198;-66
2023/06/09 05:07:46;;;;;;;5.10;4.60;;;17.60;99.90;;;;;;5049162;28;20170;-67
2023/06/09 05:10:11;;;;;;;5.90;5.30;;;17.60;99.90;;;;;;5037908;28;20337;-66
2023/06/09 05:12:42;;;;;;;6.05;5.35;;;17.70;99.90;;;;;;5038920;28;20290;-67
2023/06/09 05:15:08;;;;;;;5.22;4.72;;;17.80;99.90;;;;;;5034232;28;20178;-65
2023/06/09 05:17:37;;;;;;;6.95;4.38;;;17.80;99.90;;;;;;5034158;28;20197;-66
2023/06/09 05:20:07;;;;;;;5.70;4.82;;;17.80;99.90;;;;;;5029292;28;20192;-66
2023/06/09 05:22:33;;;;;;;5.63;5.05;;;17.90;99.90;;;;;;5025423;28;20235;-67
2023/06/09 05:24:59;;;;;;;5.38;4.88;;;17.90;99.90;;;;;;5044742;28;20189;-66
2023/06/09 05:27:25;;;;;;;5.15;4.63;;;18.00;99.90;;;;;;5017887;28;20181;-67
2023/06/09 05:29:50;;;;;;;5.70;5.10;;;18.00;99.90;;;;;;5024720;28;20169;-66
2023/06/09 05:32:16;;;;;;;5.00;4.50;;;18.10;99.90;;;;;;5054017;28;20216;-67
2023/06/09 05:34:44;;;;;;;5.85;5.10;;;18.20;99.90;;;;;;5021000;28;20256;-66
2023/06/09 05:37:12;;;;;;;5.93;5.32;;;18.20;99.90;;;;;;5041011;28;20250;-66
2023/06/09 05:39:43;;;;;;;5.43;4.93;;;18.30;99.90;;;;;;5028112;28;20185;-66
2023/06/09 05:42:09;;;;;;;5.30;4.65;;;18.40;99.90;;;;;;5037501;28;20177;-67
2023/06/09 05:44:35;;;;;;;4.95;4.45;;;18.40;99.90;;;;;;5036098;28;20270;-67
2023/06/09 05:47:06;;;;;;;5.07;4.60;;;18.50;99.90;;;;;;5054240;28;20169;-67
2023/06/09 05:49:34;;;;;;;5.32;4.82;;;18.50;99.90;;;;;;5039958;28;20212;-66
2023/06/09 05:52:00;;;;;;;5.05;4.55;;;18.60;99.90;;;;;;5032640;28;20194;-67
2023/06/09 05:54:26;;;;;;;5.75;4.95;;;18.70;99.90;;;;;;5037264;28;20195;-67
2023/06/09 05:56:55;;;;;;;5.20;4.70;;;18.70;99.90;;;;;;5033685;28;20193;-64
2023/06/09 05:59:23;;;;;;;5.20;4.70;;;18.80;99.90;;;;;;5035477;28;20184;-67
2023/06/09 06:01:49;;;;;;;5.63;5.13;;;18.90;99.90;;;;;;5053723;28;20271;-65
2023/06/09 06:04:15;;;;;;;4.88;4.38;;;18.90;99.90;;;;;;5037075;28;20292;-67
2023/06/09 06:06:41;;;;;;;5.03;4.57;;;19.00;99.90;;;;;;5053707;28;20196;-66
2023/06/09 06:09:06;;;;;;;4.95;4.40;;;19.00;99.90;;;;;;5051863;28;20206;-66
2023/06/09 06:11:32;;;;;;;4.85;4.45;;;19.10;99.90;;;;;;5032230;28;20285;-67
2023/06/09 06:13:58;;;;;;;4.80;4.40;;;19.20;99.90;;;;;;5033901;28;20263;-68
2023/06/09 06:16:26;;;;;;;5.15;4.18;;;19.20;99.90;;;;;;5021071;28;20193;-67
2023/06/09 06:18:52;;;;;;;4.53;4.05;;;19.30;99.90;;;;;;5023347;28;20184;-67
2023/06/09 06:21:18;;;;;;;4.43;4.03;;;19.40;99.90;;;;;;5036995;28;20268;-66
2023/06/09 06:23:46;;;;;;;4.03;3.65;;;19.40;99.90;;;;;;5036701;28;20251;-66
2023/06/09 06:26:11;;;;;;;3.97;3.58;;;19.50;99.90;;;;;;5036038;28;20271;-67
2023/06/09 06:28:39;;;;;;;4.28;3.88;;;19.60;99.90;;;;;;5036934;28;20201;-67
2023/06/09 06:31:08;;;;;;;5.60;4.07;;;19.60;99.90;;;;;;5047122;28;20203;-66
2023/06/09 06:33:34;;;;;;;4.20;3.80;;;19.70;99.90;;;;;;5039487;28;20169;-67
2023/06/09 06:36:00;;;;;;;5.05;3.97;;;19.80;99.90;;;;;;5027496;28;20206;-66
2023/06/09 06:38:25;;;;;;;4.65;3.85;;;19.80;99.90;;;;;;5039910;28;20251;-66
2023/06/09 06:40:51;;;;;;;4.25;3.85;;;19.90;99.90;;;;;;5030970;28;20231;-65
2023/06/09 06:43:19;;;;;;;3.83;3.42;;;20.00;99.90;;;;;;5036706;28;20193;-65
2023/06/09 06:45:45;;;;;;;4.10;3.70;;;20.00;99.90;;;;;;5056233;28;20181;-66
2023/06/09 06:48:11;;;;;;;4.80;3.70;;;20.10;99.90;;;;;;5050473;28;20193;-67
2023/06/09 06:50:37;;;;;;;3.85;3.13;;;20.20;99.90;;;;;;5040681;28;20534;-66
2023/06/09 06:53:05;;;;;;;3.67;3.38;;;20.30;99.90;;;;;;5031814;28;20174;-66
2023/06/09 06:55:31;;;;;;;3.78;3.15;;;20.30;99.90;;;;;;5025875;28;20222;-65
2023/06/09 06:57:59;;;;;;;3.45;3.15;;;20.40;99.90;;;;;;5037047;28;20174;-66
2023/06/09 07:00:25;;;;;;;3.35;3.05;;;20.40;99.90;;;;;;5052342;28;20181;-68
2023/06/09 07:02:50;;;;;;;4.00;3.30;;;20.50;99.90;;;;;;5035763;28;20200;-67
2023/06/09 07:05:19;;;;;;;3.70;3.30;;;20.60;99.90;;;;;;5045226;28;20169;-68
2023/06/09 07:07:47;;;;;;;3.63;3.33;;;20.70;99.90;;;;;;5039905;28;20197;-65
2023/06/09 07:10:15;;;;;;;3.80;3.30;;;20.70;99.90;;;;;;5036426;28;20182;-65
2023/06/09 07:12:43;;;;;;;3.33;3.03;;;20.80;99.90;;;;;;5035520;28;20202;-67
2023/06/09 07:15:13;;;;;;;3.85;3.40;;;20.90;99.90;;;;;;5036646;28;20227;-66
2023/06/09 07:17:39;;;;;;;3.88;3.47;;;20.90;99.90;;;;;;5037324;28;20181;-65
2023/06/09 07:20:08;;;;;;;3.70;3.40;;;21.00;99.90;;;;;;5038937;28;20304;-67
2023/06/09 07:22:36;;;;;;;3.90;3.47;;;21.10;99.90;;;;;;5039316;28;20267;-67
2023/06/09 07:25:01;;;;;;;3.65;3.35;;;21.20;99.90;;;;;;5051562;28;20224;-67
2023/06/09 07:27:30;;;;;;;3.60;3.30;;;21.20;99.90;;;;;;5056335;28;20201;-67
2023/06/09 07:29:56;;;;;;;3.75;3.45;;;21.30;99.90;;;;;;5049797;28;20211;-67
2023/06/09 07:32:24;;;;;;;4.45;3.50;;;21.40;99.90;;;;;;5039447;28;20268;-66
2023/06/09 07:34:50;;;;;;;4.30;3.88;;;21.50;99.90;;;;;;5039497;28;20197;-67
2023/06/09 07:37:16;;;;;;;3.40;3.08;;;21.50;99.90;;;;;;5038719;28;20201;-67
2023/06/09 07:39:41;;;;;;;4.55;3.78;;;21.60;99.90;;;;;;5055478;28;20181;-66
2023/06/09 07:42:07;;;;;;;4.47;3.55;;;21.70;99.90;;;;;;5054931;28;20186;-66
2023/06/09 07:44:37;;;;;;;3.92;3.53;;;21.80;99.90;;;;;;5039526;28;20221;-66
2023/06/09 07:47:02;;;;;;;4.30;3.58;;;21.80;99.90;;;;;;5039387;28;20264;-67
2023/06/09 07:49:28;;;;;;;3.90;3.60;;;21.90;99.90;;;;;;5039047;28;20359;-66
2023/06/09 07:51:54;;;;;;;4.13;3.72;;;22.00;99.90;;;;;;5037762;28;20215;-67
2023/06/09 07:54:22;;;;;;;3.50;3.20;;;22.10;99.90;;;;;;5049971;28;20246;-66
2023/06/09 07:56:50;;;;;;;3.28;2.95;;;22.10;99.90;;;;;;5041088;28;20210;-65
2023/06/09 07:59:19;;;;;;;3.55;3.25;;;22.20;99.90;;;;;;5031076;28;20178;-66
2023/06/09 08:01:49;;;;;;;3.58;3.20;;;22.30;99.90;;;;;;5038263;28;20220;-65
2023/06/09 08:04:17;;;;;;;3.90;3.60;;;22.40;99.90;;;;;;5038929;28;20217;-67
2023/06/09 08:06:44;;;;;;;3.60;3.10;;;22.50;99.90;;;;;;5022103;28;20186;-67
2023/06/09 08:09:10;;;;;;;3.92;3.60;;;22.60;99.90;;;;;;5026743;28;20268;-68
2023/06/09 08:11:38;;;;;;;3.95;3.42;;;22.70;99.90;;;;;;5055237;28;20269;-66
2023/06/09 08:14:09;;;;;;;3.85;3.38;;;22.80;99.90;;;;;;5038386;28;20209;-66
2023/06/09 08:16:35;;;;;;;4.03;3.30;;;22.80;99.90;;;;;;5055033;28;20175;-67
2023/06/09 08:19:01;;;;;;;5.25;3.60;;;22.90;99.90;;;;;;5038527;28;20264;-67
2023/06/09 08:21:29;;;;;;;3.78;3.15;;;23.00;99.90;;;;;;5038856;28;20195;-67
2023/06/09 08:23:55;;;;;;;5.60;3.33;;;23.10;99.90;;;;;;5037489;28;20254;-67
2023/06/09 08:26:20;;;;;;;3.60;3.25;;;23.20;99.90;;;;;;5049122;28;20193;-68
2023/06/09 08:28:49;;;;;;;3.80;3.35;;;23.30;99.90;;;;;;5050813;28;20178;-66
2023/06/09 08:31:15;;;;;;;3.88;3.40;;;23.40;99.90;;;;;;5050791;28;20189;-68
2023/06/09 08:33:47;;;;;;;3.50;3.20;;;23.50;99.90;;;;;;5054884;28;20185;-70
2023/06/09 08:36:15;;;;;;;3.50;3.20;;;23.60;99.90;;;;;;5019581;28;20173;-70
2023/06/09 08:38:41;;;;;;;3.90;3.13;;;23.60;99.90;;;;;;5021916;28;20177;-70
2023/06/09 08:41:08;;;;;;;3.83;3.42;;;23.70;99.90;;;;;;5022901;28;20303;-66
2023/06/09 08:43:34;;;;;;;3.30;3.00;;;23.80;99.90;;;;;;5032271;28;20197;-67
2023/06/09 08:46:05;;;;;;;3.35;3.05;;;23.90;99.90;;;;;;5037605;28;20180;-67
2023/06/09 08:48:32;;;;;;;3.55;3.25;;;24.00;99.90;;;;;;5023508;28;20231;-67
2023/06/09 08:50:58;;;;;;;3.90;3.30;;;24.10;99.90;;;;;;5052246;28;20238;-67
2023/06/09 08:53:29;;;;;;;3.60;3.17;;;24.20;99.90;;;;;;5053567;28;20174;-67
2023/06/09 08:55:55;;;;;;;3.30;3.00;;;24.30;99.90;;;;;;5053941;28;20184;-66
2023/06/09 08:58:24;;;;;;;3.50;3.20;;;24.40;99.90;;;;;;5036722;28;20166;-65
2023/06/09 09:00:51;;;;;;;3.28;2.92;;;24.40;99.90;;;;;;5037373;28;20284;-66
2023/06/09 09:03:17;;;;;;;3.35;3.05;;;24.50;99.90;;;;;;5037354;28;20204;-67
2023/06/09 09:05:46;;;;;;;3.28;3.00;;;24.50;99.90;;;;;;5036969;28;20280;-67
2023/06/09 09:08:15;;;;;;;3.50;3.20;;;24.60;99.90;;;;;;5053670;28;20440;-67
2023/06/09 09:10:46;;;;;;;4.50;3.17;;;24.70;99.90;;;;;;5053930;28;20204;-67
2023/06/09 09:13:13;;;;;;;3.78;2.90;;;24.80;99.90;;;;;;5037337;28;20230;-66
2023/06/09 09:15:53;;;;;;;3.42;3.05;;;24.90;99.90;;;;;;5053730;28;20232;-67
2023/06/09 09:18:21;;;;;;;2.95;2.70;;;25.10;99.90;;;;;;5036655;28;20196;-67
2023/06/09 09:20:48;;;;;;;3.00;2.80;;;25.20;99.90;;;;;;5054208;28;20169;-67
2023/06/09 09:23:14;;;;;;;3.72;2.97;;;25.30;99.90;;;;;;5047462;28;20193;-66
2023/06/09 09:25:44;;;;;;;3.40;3.00;;;25.50;99.90;;;;;;5018236;28;20170;-65
2023/06/09 09:28:12;;;;;;;3.30;3.00;;;25.60;99.90;;;;;;5053633;28;20204;-67
2023/06/09 09:30:46;;;;;;;2.88;2.58;;;25.70;99.90;;;;;;5041689;28;20180;-66
2023/06/09 09:33:13;;;;;;;3.47;2.90;;;25.80;99.90;;;;;;5036598;28;20278;-68
2023/06/09 09:35:42;;;;;;;3.42;2.70;;;25.90;99.90;;;;;;5054916;28;20182;-66
2023/06/09 09:38:20;;;;;;;3.20;2.90;;;26.00;99.90;;;;;;5056659;28;20197;-67
2023/06/09 09:40:50;;;;;;;2.47;2.28;;;26.10;99.90;;;;;;5057058;28;20368;-66
2023/06/09 09:43:17;;;;;;;3.28;2.95;;;26.20;99.90;;;;;;5053279;28;20475;-68
2023/06/09 09:45:47;;;;;;;3.92;2.78;;;26.30;99.90;;;;;;5053265;28;20169;-64
2023/06/09 09:48:16;;;;;;;3.05;2.75;;;26.50;99.90;;;;;;5053546;28;20177;-68
2023/06/09 09:50:45;;;;;;;3.38;2.83;;;26.60;99.90;;;;;;5036859;28;20235;-67
2023/06/09 09:53:12;;;;;;;3.05;2.75;;;26.60;99.90;;;;;;5053038;28;20189;-66
2023/06/09 09:55:41;;;;;;;3.45;2.70;;;26.70;99.90;;;;;;5053017;28;20204;-67
2023/06/09 09:58:09;;;;;;;3.03;2.72;;;26.80;99.90;;;;;;5053620;28;20188;-66
2023/06/09 10:00:40;;;;;;;3.63;2.70;;;26.90;99.90;;;;;;5052911;28;20205;-67
2023/06/09 10:03:17;;;;;;;3.15;2.80;;;27.00;99.90;;;;;;5052984;28;20233;-67
2023/06/09 10:05:52;;;;;;;3.33;2.90;;;27.10;99.90;;;;;;5053475;28;20220;-67
2023/06/09 10:08:24;;;;;;;4.38;2.63;;;27.20;99.30;;;;;;5047822;28;20184;-67
2023/06/09 10:10:51;;;;;;;3.17;2.88;;;27.30;99.80;;;;;;5057019;28;20206;-67
2023/06/09 10:13:20;;;;;;;4.40;2.65;;;27.40;99.90;;;;;;5047135;28;20188;-66
2023/06/09 10:15:50;;;;;;;3.20;2.83;;;27.40;99.00;;;;;;5043695;28;20212;-68
2023/06/09 10:18:20;;;;;;;2.90;2.63;;;27.50;99.00;;;;;;5056927;28;20177;-67
2023/06/09 10:20:49;;;;;;;3.20;2.90;;;27.60;98.30;;;;;;5043782;28;20173;-67
2023/06/09 10:23:15;;;;;;;3.05;2.78;;;27.60;99.10;;;;;;5040199;28;20444;-65
2023/06/09 10:25:41;;;;;;;3.20;2.90;;;27.80;98.90;;;;;;5040441;28;20235;-65
2023/06/09 10:28:10;;;;;;;4.38;2.70;;;27.80;98.80;;;;;;5040208;28;20288;-69
2023/06/09 10:30:38;;;;;;;3.55;2.70;;;27.90;98.70;;;;;;5041528;28;20173;-65
2023/06/09 10:33:10;;;;;;;4.03;2.72;;;28.00;97.60;;;;;;5040011;28;20284;-68
2023/06/09 10:35:38;;;;;;;2.95;2.45;;;28.10;98.00;;;;;;5063696;28;20200;-68
2023/06/09 10:38:24;;;;;;;2.80;2.60;;;28.30;97.40;;;;;;5056625;28;20201;-68
2023/06/09 10:41:10;;;;;;;3.83;3.05;;;28.50;96.10;;;;;;5046479;28;20418;-68
2023/06/09 10:44:11;;;;;;;3.50;2.92;;;28.70;96.30;;;;;;5039641;28;20350;-65
2023/06/09 10:46:42;;;;;;;2.63;2.42;;;28.90;94.70;;;;;;5042647;28;20183;-67
2023/06/09 10:49:37;;;;;;;2.83;2.35;;;29.10;95.30;;;;;;5046439;28;20303;-68
2023/06/09 10:52:06;;;;;;;6.35;2.90;;;29.30;96.20;;;;;;5026974;28;20181;-68
2023/06/09 10:54:35;;;;;;;3.10;2.63;;;29.50;94.30;;;;;;5036114;28;20221;-67
2023/06/09 10:57:26;;;;;;;2.85;2.45;;;29.60;94.30;;;;;;5044167;28;20185;-67
2023/06/09 10:59:54;;;;;;;6.90;2.58;;;29.80;93.20;;;;;;5056052;28;20260;-68
2023/06/09 11:02:20;;;;;;;2.45;2.25;;;29.90;93.70;;;;;;5039764;28;20192;-65
2023/06/09 11:04:49;;;;;;;2.85;2.55;;;30.00;93.90;;;;;;5055699;28;20208;-66
2023/06/09 11:07:29;;;;;;;3.60;2.50;;;30.20;92.60;;;;;;5039470;28;20169;-67
2023/06/09 11:10:00;;;;;;;2.58;2.38;;;30.30;90.00;;;;;;5039043;28;20180;-67
2023/06/09 11:12:28;;;;;;;2.65;2.45;;;30.40;90.00;;;;;;5039449;28;20210;-67
2023/06/09 11:14:56;;;;;;;3.22;2.58;;;30.50;91.00;;;;;;5039207;28;20202;-67
2023/06/09 11:17:25;;;;;;;3.15;2.25;;;30.60;89.80;;;;;;5037853;28;20180;-67
2023/06/09 11:19:52;;;;;;;2.72;2.53;;;30.70;90.10;;;;;;5039647;28;20180;-67
2023/06/09 11:22:22;;;;;;;2.75;2.38;;;30.80;90.10;;;;;;5051746;28;20220;-66
2023/06/09 11:24:48;;;;;;;2.88;2.60;;;30.90;89.60;;;;;;5055705;28;20275;-68
2023/06/09 11:27:23;;;;;;;2.40;2.20;;;31.00;88.80;;;;;;5055593;28;20203;-66
2023/06/09 11:30:18;;;;;;;2.85;2.50;;;31.10;81.00;;;;;;5055379;28;20176;-69
2023/06/09 11:32:56;;;;;;;3.00;2.40;;;31.20;83.50;;;;;;5055756;28;20254;-68
2023/06/09 11:38:07;;;;;;;2.60;2.38;;;31.40;82.20;;;;;;5056022;28;20295;-66
2023/06/09 11:40:38;;;;;;;2.60;2.40;;;31.60;83.00;;;;;;5047635;28;20172;-65
2023/06/09 11:43:08;;;;;;;2.70;2.50;;;31.70;80.40;;;;;;5038602;28;20286;-67
2023/06/09 11:45:35;;;;;;;4.25;2.70;;;31.80;78.60;;;;;;5046452;28;20168;-67
2023/06/09 11:48:05;;;;;;;2.97;2.67;;;31.80;80.00;;;;;;5020713;28;20216;-67
2023/06/09 11:50:45;;;;;;;3.20;2.90;;;31.90;78.60;;;;;;5018371;28;20228;-67
2023/06/09 11:53:17;;;;;;;3.90;2.35;;;32.00;70.30;;;;;;5048473;28;20488;-69
2023/06/09 11:55:46;;;;;;;4.05;2.83;;;32.20;77.00;;;;;;5019069;28;20182;-67
2023/06/09 11:58:15;;;;;;;2.50;2.30;;;32.20;75.80;;;;;;5054872;28;20176;-68
2023/06/09 12:00:43;;;;;;;2.53;2.30;;;32.30;76.40;;;;;;5054748;28;20198;-69
2023/06/09 12:03:18;;;;;;;2.47;2.28;;;32.40;74.70;;;;;;5038198;28;20227;-69
2023/06/09 12:05:48;;;;;;;3.15;2.53;;;32.60;75.20;;;;;;5054838;28;20206;-68
2023/06/09 12:08:14;;;;;;;2.47;2.28;;;32.70;72.50;;;;;;5054841;28;20241;-65
2023/06/09 12:10:40;;;;;;;2.72;2.53;;;32.80;73.50;;;;;;5038017;28;20221;-68
2023/06/09 12:13:06;;;;;;;2.92;2.50;;;32.90;72.90;;;;;;5038361;28;20271;-69
2023/06/09 12:15:37;;;;;;;3.17;2.85;;;33.00;72.40;;;;;;5038126;28;20197;-67
2023/06/09 12:18:03;;;;;;;2.50;2.30;;;33.10;69.00;;;;;;5038012;28;20204;-68
2023/06/09 12:20:36;;;;;;;3.70;2.72;;;33.20;70.00;;;;;;5051244;28;20216;-67
2023/06/09 12:23:13;;;;;;;2.60;2.40;;;33.20;69.70;;;;;;5034778;28;20201;-67
2023/06/09 12:25:50;;;;;;;3.05;2.67;;;33.30;67.90;;;;;;5042728;28;20270;-69
2023/06/09 12:28:27;;;;;;;7.57;5.82;;;33.50;66.70;;;;;;5037716;28;20267;-68
2023/06/09 12:31:09;;;;;;;4.38;3.75;;;33.50;64.50;;;;;;5037712;28;20192;-67
2023/06/09 12:33:36;;;;;;;5.07;3.20;;;33.60;64.60;;;;;;5032177;28;20179;-64
2023/06/09 12:36:11;;;;;;;3.05;2.75;;;33.70;65.50;;;;;;5055202;28;20168;-68
2023/06/09 12:38:38;;;;;;;2.85;2.65;;;33.70;62.20;;;;;;5054521;28;20172;-69
2023/06/09 12:41:06;;;;;;;2.50;2.30;;;33.80;63.50;;;;;;5054439;28;20188;-68
2023/06/09 12:43:48;;;;;;;2.72;2.47;;;33.80;63.30;;;;;;5050227;28;20200;-68
2023/06/09 12:46:25;;;;;;;2.70;2.50;;;33.80;56.50;;;;;;5050824;28;20169;-67
2023/06/09 12:49:05;;;;;;;3.80;2.63;;;33.80;59.20;;;;;;5056569;28;20196;-68
2023/06/09 12:51:36;;;;;;;3.70;2.67;;;33.90;57.40;;;;;;5053984;28;20188;-68
2023/06/09 12:54:06;;;;;;;2.30;2.10;;;33.90;58.70;;;;;;5054034;28;20204;-67
2023/06/09 12:56:32;;;;;;;4.43;2.40;;;33.90;59.30;;;;;;5054233;28;20263;-68
2023/06/09 12:59:01;;;;;;;3.58;2.30;;;34.00;58.30;;;;;;5037162;28;20232;-67